Terminal Aerodrome Forecast
Issued by NWS Springfield, MO

Home | Current Version | Previous Version | Text Only | Print | Product List | Glossary On
Versions: 1 2 3 4 5 6 7 8 9 10 11 12 13 14 15 16 17 18 19 20 21 22 23
815
FTUS43 KSGF 060428 AAB
TAFSGF
TAF AMD
KSGF 060428Z 0604/0624 15006KT P6SM SCT200
     FM060600 18004KT 3SM BR SCT030 BKN080
     FM060900 32007KT 1SM BR OVC015
     FM061500 34012KT P6SM SCT020
     FM062300 33007KT P6SM BKN200=

USA.gov is the U.S. government's official web portal to all federal, state and local government web resources and services.